createdAt,value
2017-08-15T00:00:13.547Z,3.00
2017-08-15T00:02:41.954Z,2.20
2017-08-15T00:05:10.353Z,2.07
2017-08-15T00:07:38.730Z,3.03
2017-08-15T00:10:07.130Z,3.20
2017-08-15T00:12:36.278Z,2.47
2017-08-15T00:15:04.681Z,2.50
2017-08-15T00:17:33.057Z,2.10
2017-08-15T00:20:01.484Z,1.87
2017-08-15T00:22:29.978Z,2.53
2017-08-15T00:24:58.370Z,2.27
2017-08-15T00:27:26.766Z,2.67
2017-08-15T00:29:55.144Z,2.50
2017-08-15T00:32:23.557Z,2.10
2017-08-15T00:34:52.710Z,2.30
2017-08-15T00:37:21.107Z,1.87
2017-08-15T00:39:49.495Z,1.70
2017-08-15T00:42:18.098Z,2.43
2017-08-15T00:44:47.245Z,2.53
2017-08-15T00:47:15.626Z,2.60
2017-08-15T00:49:44.019Z,2.07
2017-08-15T00:52:12.411Z,2.40
2017-08-15T00:54:40.813Z,2.40
2017-08-15T00:57:09.198Z,2.60
2017-08-15T00:59:37.605Z,2.70
2017-08-15T01:02:05.638Z,2.07
2017-08-15T01:04:34.018Z,2.60
2017-08-15T01:07:02.416Z,2.20
2017-08-15T01:09:30.817Z,1.93
2017-08-15T01:11:59.209Z,1.87
2017-08-15T01:14:27.582Z,2.23
2017-08-15T01:16:56.005Z,2.23
2017-08-15T01:19:24.390Z,2.27
2017-08-15T01:21:52.435Z,1.87
2017-08-15T01:24:21.573Z,2.10
2017-08-15T01:26:49.971Z,2.00
2017-08-15T01:29:18.358Z,1.97
2017-08-15T01:31:46.730Z,2.00
2017-08-15T01:34:15.132Z,2.37
2017-08-15T01:36:43.511Z,1.57
2017-08-15T01:39:11.912Z,2.53
2017-08-15T01:41:41.078Z,2.37
2017-08-15T01:44:09.475Z,1.83
2017-08-15T01:46:37.850Z,1.80
2017-08-15T01:49:07.079Z,2.03
2017-08-15T01:51:35.455Z,2.07
2017-08-15T01:54:03.830Z,2.20
2017-08-15T01:56:32.243Z,2.20
2017-08-15T01:59:00.629Z,2.20
2017-08-15T02:01:29.027Z,2.07
2017-08-15T02:03:57.426Z,2.40
2017-08-15T02:06:26.593Z,1.83
2017-08-15T02:08:54.968Z,1.90
2017-08-15T02:11:23.494Z,2.20
2017-08-15T02:13:51.887Z,2.43
2017-08-15T02:16:20.266Z,1.77
2017-08-15T02:18:48.340Z,1.77
2017-08-15T02:21:16.715Z,2.00
2017-08-15T02:23:45.110Z,1.63
2017-08-15T02:26:13.520Z,2.07
2017-08-15T02:28:41.921Z,2.17
2017-08-15T02:31:10.346Z,1.90
2017-08-15T02:33:38.763Z,1.90
2017-08-15T02:36:07.159Z,1.73
2017-08-15T02:38:35.545Z,1.63
2017-08-15T02:41:03.943Z,1.73
2017-08-15T02:43:32.339Z,1.87
2017-08-15T02:46:00.738Z,1.87
2017-08-15T02:48:29.130Z,1.70
2017-08-15T02:50:57.523Z,2.20
2017-08-15T02:53:26.670Z,1.50
2017-08-15T02:55:55.309Z,2.07
2017-08-15T02:58:24.469Z,1.90
2017-08-15T03:00:52.857Z,1.80
2017-08-15T03:03:21.930Z,1.73
2017-08-15T03:05:50.321Z,1.83
2017-08-15T03:08:18.719Z,1.53
2017-08-15T03:10:47.101Z,2.10
2017-08-15T03:13:16.254Z,1.63
2017-08-15T03:15:44.638Z,1.40
2017-08-15T03:18:13.262Z,2.03
2017-08-15T03:20:41.638Z,1.70
2017-08-15T03:23:10.794Z,1.53
2017-08-15T03:25:39.174Z,1.23
2017-08-15T03:28:07.585Z,1.37
2017-08-15T03:30:36.768Z,1.60
2017-08-15T03:33:05.165Z,1.90
2017-08-15T03:35:34.339Z,2.00
2017-08-15T03:38:02.729Z,1.57
2017-08-15T03:40:31.338Z,1.93
2017-08-15T03:42:59.730Z,1.50
2017-08-15T03:45:28.115Z,1.80
2017-08-15T03:47:56.514Z,1.80
2017-08-15T03:50:24.897Z,1.60
2017-08-15T03:52:53.295Z,1.90
2017-08-15T03:55:21.676Z,1.63
2017-08-15T03:57:50.073Z,1.60
2017-08-15T04:00:19.230Z,1.97
2017-08-15T04:02:47.653Z,1.93
2017-08-15T04:05:16.049Z,1.93
2017-08-15T04:07:44.433Z,1.50
2017-08-15T04:10:12.838Z,1.63
2017-08-15T04:12:41.216Z,1.70
2017-08-15T04:15:09.627Z,1.97
2017-08-15T04:17:38.001Z,1.70
2017-08-15T04:20:06.419Z,1.60
2017-08-15T04:22:34.823Z,1.40
2017-08-15T04:25:03.250Z,1.60
2017-08-15T04:27:31.653Z,1.30
2017-08-15T04:30:00.055Z,1.97
2017-08-15T04:32:28.454Z,1.73
2017-08-15T04:34:57.073Z,1.60
2017-08-15T04:37:26.247Z,1.60
2017-08-15T04:39:54.645Z,1.60
2017-08-15T04:42:23.954Z,1.53
2017-08-15T04:44:53.096Z,1.30
2017-08-15T04:47:21.481Z,1.80
2017-08-15T04:49:50.010Z,1.37
2017-08-15T04:52:19.155Z,1.20
2017-08-15T04:54:47.541Z,1.10
2017-08-15T04:57:16.326Z,1.30
2017-08-15T04:59:44.701Z,1.40
2017-08-15T05:02:13.090Z,1.87
2017-08-15T05:04:41.714Z,1.53
2017-08-15T05:07:10.876Z,1.97
2017-08-15T05:09:39.266Z,1.80
2017-08-15T05:12:07.882Z,1.50
2017-08-15T05:14:36.282Z,1.70
2017-08-15T05:17:04.675Z,1.97
2017-08-15T05:19:33.324Z,2.40
2017-08-15T05:22:01.787Z,2.23
2017-08-15T05:24:30.952Z,1.63
2017-08-15T05:26:59.495Z,1.80
2017-08-15T05:29:27.876Z,1.83
2017-08-15T05:31:56.261Z,1.70
2017-08-15T05:34:24.657Z,2.07
2017-08-15T05:36:56.640Z,2.40
2017-08-15T05:39:25.253Z,1.80
2017-08-15T05:41:54.402Z,1.70
2017-08-15T05:44:22.801Z,2.00
2017-08-15T05:46:51.603Z,2.23
2017-08-15T05:49:20.747Z,1.77
2017-08-15T05:51:49.136Z,1.87
2017-08-15T05:54:17.776Z,2.27
2017-08-15T05:56:46.172Z,2.17
2017-08-15T05:59:14.563Z,1.73
2017-08-15T06:01:43.138Z,1.90
2017-08-15T06:04:11.512Z,2.23
2017-08-15T06:06:39.892Z,2.33
2017-08-15T06:09:08.546Z,2.17
2017-08-15T06:11:37.710Z,2.47
2017-08-15T06:14:06.101Z,2.50
2017-08-15T06:16:34.515Z,2.17
2017-08-15T06:19:02.913Z,2.17
2017-08-15T06:21:31.296Z,2.70
2017-08-15T06:23:59.953Z,2.70
2017-08-15T06:26:28.339Z,2.13
2017-08-15T06:28:56.722Z,2.50
2017-08-15T06:31:25.310Z,2.90
2017-08-15T06:33:53.797Z,2.47
2017-08-15T06:36:22.209Z,2.30
2017-08-15T06:38:50.601Z,2.80
2017-08-15T06:41:19.004Z,2.70
2017-08-15T06:43:47.383Z,2.90
2017-08-15T06:46:15.834Z,2.30
2017-08-15T06:48:44.221Z,2.10
2017-08-15T06:51:12.598Z,2.17
2017-08-15T06:53:42.006Z,2.47
2017-08-15T06:56:11.178Z,2.20
2017-08-15T06:58:39.590Z,2.93
2017-08-15T07:01:08.173Z,3.00
2017-08-15T07:03:36.551Z,2.80
2017-08-15T07:06:04.952Z,3.00
2017-08-15T07:08:33.607Z,3.40
2017-08-15T07:11:01.981Z,3.50
2017-08-15T07:13:31.124Z,3.07
2017-08-15T07:15:59.563Z,3.17
2017-08-15T07:18:27.951Z,3.20
2017-08-15T07:20:56.342Z,3.37
2017-08-15T07:23:24.789Z,3.27
2017-08-15T07:25:53.166Z,2.80
2017-08-15T07:28:21.545Z,2.57
2017-08-15T07:30:50.950Z,3.30
2017-08-15T07:33:20.087Z,3.00
2017-08-15T07:35:48.465Z,2.30
2017-08-15T07:38:16.859Z,3.07
2017-08-15T07:40:45.234Z,2.30
2017-08-15T07:43:13.609Z,2.87
2017-08-15T07:45:42.368Z,2.83
2017-08-15T07:48:10.746Z,2.83
2017-08-15T07:50:39.142Z,3.13
2017-08-15T07:53:07.785Z,2.77
2017-08-15T07:55:36.944Z,3.70
2017-08-15T07:58:05.317Z,3.37
2017-08-15T08:00:33.870Z,3.27
2017-08-15T08:03:02.250Z,3.37
2017-08-15T08:05:30.624Z,3.20
2017-08-15T08:07:59.110Z,3.10
2017-08-15T08:10:27.503Z,3.17
2017-08-15T08:12:55.898Z,3.10
2017-08-15T08:15:24.312Z,3.40
2017-08-15T08:17:53.467Z,3.33
2017-08-15T08:20:21.838Z,3.20
2017-08-15T08:22:50.252Z,3.30
2017-08-15T08:25:18.627Z,3.83
2017-08-15T08:27:47.002Z,2.60
2017-08-15T08:30:15.450Z,2.93
2017-08-15T08:32:43.832Z,2.40
2017-08-15T08:35:12.214Z,2.60
2017-08-15T08:37:40.843Z,2.43
2017-08-15T08:40:10.003Z,2.80
2017-08-15T08:42:38.379Z,2.30
2017-08-15T08:45:06.791Z,2.60
2017-08-15T08:47:35.165Z,2.77
2017-08-15T08:50:04.158Z,2.63
2017-08-15T08:52:33.422Z,2.50
2017-08-15T08:55:01.825Z,2.17
2017-08-15T08:57:30.219Z,3.10
2017-08-15T08:59:59.798Z,2.67
2017-08-15T09:02:27.994Z,2.40
2017-08-15T09:04:56.390Z,1.60
2017-08-15T09:07:25.882Z,1.13
2017-08-15T09:09:54.865Z,2.70
2017-08-15T09:12:23.077Z,1.80
2017-08-15T09:14:51.585Z,1.87
2017-08-15T09:17:19.974Z,1.83
2017-08-15T09:19:48.150Z,1.57
2017-08-15T09:22:16.554Z,1.90
2017-08-15T09:24:45.512Z,1.37
2017-08-15T09:27:13.705Z,2.07
2017-08-15T09:29:46.807Z,1.83
2017-08-15T09:32:15.790Z,1.90
2017-08-15T09:34:43.990Z,1.97
2017-08-15T09:37:13.186Z,1.93
2017-08-15T09:39:42.341Z,2.03
2017-08-15T09:42:10.525Z,1.90
2017-08-15T09:44:39.148Z,1.67
2017-08-15T09:47:07.338Z,1.73
2017-08-15T09:49:35.715Z,2.00
2017-08-15T09:52:04.270Z,1.67
2017-08-15T09:54:33.414Z,1.90
2017-08-15T09:57:01.800Z,2.13
2017-08-15T09:59:30.642Z,2.70
2017-08-15T10:01:59.026Z,2.77
2017-08-15T10:04:27.448Z,2.57
2017-08-15T10:06:56.073Z,2.03
2017-08-15T10:09:25.026Z,2.30
2017-08-15T10:11:53.402Z,2.70
2017-08-15T10:14:21.855Z,3.10
2017-08-15T10:16:50.050Z,2.77
2017-08-15T10:19:18.450Z,3.37
2017-08-15T10:21:47.049Z,3.10
2017-08-15T10:24:16.007Z,3.87
2017-08-15T10:26:44.391Z,5.07
2017-08-15T10:29:12.929Z,3.90
2017-08-15T10:31:41.305Z,4.53
2017-08-15T10:34:09.801Z,3.67
2017-08-15T10:36:38.447Z,3.97
2017-08-15T10:39:06.826Z,4.30
2017-08-15T10:41:35.205Z,3.87
2017-08-15T10:44:04.370Z,4.73
2017-08-15T10:46:32.754Z,3.83
2017-08-15T10:49:01.144Z,4.20
2017-08-15T10:51:29.540Z,4.90
2017-08-15T10:53:58.682Z,5.93
2017-08-15T10:56:27.055Z,4.77
2017-08-15T10:58:55.332Z,5.33
2017-08-15T11:01:23.535Z,4.77
2017-08-15T11:03:51.914Z,4.97
2017-08-15T11:06:20.319Z,4.40
2017-08-15T11:08:49.474Z,4.20
2017-08-15T11:11:17.857Z,4.30
2017-08-15T11:13:46.257Z,4.17
2017-08-15T11:16:14.638Z,5.33
2017-08-15T11:18:43.018Z,3.73
2017-08-15T11:21:12.219Z,4.20
2017-08-15T11:23:41.016Z,4.97
2017-08-15T11:26:10.154Z,4.83
2017-08-15T11:28:38.654Z,4.87
2017-08-15T11:31:07.046Z,4.37
2017-08-15T11:33:35.430Z,3.73
2017-08-15T11:36:04.541Z,4.37
2017-08-15T11:38:33.700Z,5.23
2017-08-15T11:41:02.082Z,4.93
2017-08-15T11:43:30.898Z,4.73
2017-08-15T11:46:00.043Z,4.77
2017-08-15T11:48:28.446Z,5.50
2017-08-15T11:50:57.258Z,5.27
2017-08-15T11:53:26.420Z,5.83
2017-08-15T11:55:54.813Z,4.90
2017-08-15T11:58:23.224Z,6.17
2017-08-15T12:00:52.365Z,4.67
2017-08-15T12:03:20.752Z,5.30
2017-08-15T12:05:49.466Z,6.00
2017-08-15T12:08:18.615Z,5.13
2017-08-15T12:10:47.595Z,3.77
2017-08-15T12:13:18.649Z,4.20
2017-08-15T12:15:47.127Z,3.40
2017-08-15T12:18:15.512Z,3.70
2017-08-15T12:20:43.920Z,3.23
2017-08-15T12:23:12.305Z,3.27
2017-08-15T12:25:40.682Z,2.97
2017-08-15T12:28:09.371Z,2.47
2017-08-15T12:30:38.350Z,3.93
2017-08-15T12:33:06.745Z,3.77
2017-08-15T12:35:35.306Z,2.50
2017-08-15T12:38:03.693Z,3.33
2017-08-15T12:40:32.084Z,3.37
2017-08-15T12:43:01.261Z,3.20
2017-08-15T12:45:29.646Z,2.80
2017-08-15T12:47:58.038Z,3.60
2017-08-15T12:50:26.617Z,3.00
2017-08-15T12:52:55.770Z,3.60
2017-08-15T12:55:24.151Z,4.00
2017-08-15T12:57:52.676Z,4.10
2017-08-15T13:00:21.835Z,4.10
2017-08-15T13:02:50.223Z,4.37
2017-08-15T13:05:18.633Z,4.87
2017-08-15T13:07:47.800Z,4.50
2017-08-15T13:10:16.180Z,4.23
2017-08-15T13:12:44.782Z,4.83
2017-08-15T13:15:13.177Z,4.50
2017-08-15T13:17:41.557Z,5.50
2017-08-15T13:20:09.972Z,5.03
2017-08-15T13:22:38.175Z,5.17
2017-08-15T13:25:06.545Z,4.43
2017-08-15T13:27:34.958Z,3.63
2017-08-15T13:30:04.190Z,4.30
2017-08-15T13:32:32.386Z,4.90
2017-08-15T13:35:00.738Z,4.20
2017-08-15T13:37:28.938Z,5.10
2017-08-15T13:40:14.976Z,5.30
2017-08-15T13:43:00.813Z,4.60
2017-08-15T13:45:29.231Z,4.70
2017-08-15T13:47:58.207Z,5.70
2017-08-15T13:50:26.586Z,5.03
2017-08-15T13:52:56.944Z,4.70
2017-08-15T13:55:26.190Z,4.97
2017-08-15T13:57:54.437Z,5.17
2017-08-15T14:00:23.054Z,5.27
2017-08-15T14:02:51.254Z,3.00
2017-08-15T14:05:20.213Z,5.03
2017-08-15T14:07:48.594Z,5.87
2017-08-15T14:10:16.803Z,5.00
2017-08-15T14:12:45.015Z,5.37
2017-08-15T14:15:13.450Z,4.50
2017-08-15T14:17:42.410Z,4.40
2017-08-15T14:20:10.800Z,6.17
2017-08-15T14:22:39.222Z,5.17
2017-08-15T14:25:07.623Z,5.20
2017-08-15T14:27:36.005Z,5.43
2017-08-15T14:30:04.435Z,4.93
2017-08-15T14:32:33.394Z,5.27
2017-08-15T14:35:01.778Z,5.53
2017-08-15T14:37:30.169Z,3.90
2017-08-15T14:39:58.374Z,3.30
2017-08-15T14:42:26.755Z,3.80
2017-08-15T14:44:54.988Z,4.70
2017-08-15T14:47:23.919Z,4.10
2017-08-15T14:49:52.124Z,4.73
2017-08-15T14:52:20.321Z,4.80
2017-08-15T14:54:48.518Z,4.37
2017-08-15T14:57:17.617Z,2.70
2017-08-15T14:59:46.611Z,5.23
2017-08-15T15:02:15.558Z,3.90
2017-08-15T15:04:43.796Z,3.10
2017-08-15T15:07:12.013Z,4.20
2017-08-15T15:09:40.222Z,3.93
2017-08-15T15:12:09.205Z,4.40
2017-08-15T15:14:37.473Z,3.53
2017-08-15T15:17:05.694Z,4.43
2017-08-15T15:19:33.894Z,3.90
2017-08-15T15:22:02.101Z,3.77
2017-08-15T15:24:30.278Z,4.20
2017-08-15T15:26:59.253Z,4.30
2017-08-15T15:29:27.661Z,4.67
2017-08-15T15:31:56.614Z,3.27
2017-08-15T15:34:25.497Z,4.83
2017-08-15T15:36:54.142Z,4.80
2017-08-15T15:39:22.581Z,4.40
2017-08-15T15:41:50.786Z,4.40
2017-08-15T15:44:19.782Z,4.83
2017-08-15T15:46:48.254Z,4.30
2017-08-15T15:49:17.403Z,5.33
2017-08-15T15:51:45.898Z,3.80
2017-08-15T15:54:16.712Z,4.70
2017-08-15T15:56:45.342Z,4.30
2017-08-15T15:59:14.319Z,4.50
2017-08-15T16:01:42.705Z,4.27
2017-08-15T16:04:12.127Z,3.87
2017-08-15T16:06:41.266Z,3.60
2017-08-15T16:09:09.637Z,4.73
2017-08-15T16:11:38.274Z,4.97
2017-08-15T16:14:07.434Z,3.90
2017-08-15T16:16:35.814Z,4.00
2017-08-15T16:19:04.634Z,5.00
2017-08-15T16:21:33.777Z,3.97
2017-08-15T16:24:02.153Z,4.37
2017-08-15T16:26:30.732Z,3.97
2017-08-15T16:28:59.110Z,4.30
2017-08-15T16:31:27.497Z,3.73
2017-08-15T16:33:55.992Z,3.80
2017-08-15T16:36:24.370Z,3.97
2017-08-15T16:38:52.746Z,4.37
2017-08-15T16:41:20.955Z,3.97
2017-08-15T16:43:49.921Z,4.47
2017-08-15T16:46:18.111Z,4.00
2017-08-15T16:48:46.322Z,4.53
2017-08-15T16:51:15.641Z,4.00
2017-08-15T16:53:43.830Z,3.60
2017-08-15T16:56:12.336Z,4.53
2017-08-15T16:58:40.527Z,4.73
2017-08-15T17:01:09.584Z,4.70
2017-08-15T17:03:38.375Z,4.07
2017-08-15T17:06:06.778Z,4.20
2017-08-15T17:08:35.930Z,4.13
2017-08-15T17:11:04.763Z,4.60
2017-08-15T17:13:33.912Z,4.90
2017-08-15T17:16:02.294Z,4.90
2017-08-15T17:18:30.915Z,4.20
2017-08-15T17:20:59.294Z,4.50
2017-08-15T17:23:28.438Z,4.37
2017-08-15T17:25:56.869Z,4.40
2017-08-15T17:28:25.244Z,4.63
2017-08-15T17:30:54.399Z,5.00
2017-08-15T17:33:22.830Z,4.37
2017-08-15T17:35:51.977Z,3.83
2017-08-15T17:38:20.386Z,4.50
2017-08-15T17:40:48.926Z,4.17
2017-08-15T17:43:17.306Z,4.23
2017-08-15T17:45:45.694Z,4.40
2017-08-15T17:48:14.096Z,4.47
2017-08-15T17:50:42.496Z,3.73
2017-08-15T17:53:11.646Z,4.77
2017-08-15T17:55:40.138Z,4.73
2017-08-15T17:58:08.513Z,4.70
2017-08-15T18:00:36.934Z,4.93
2017-08-15T18:03:05.346Z,4.33
2017-08-15T18:05:33.834Z,4.37
2017-08-15T18:08:02.222Z,4.87
2017-08-15T18:10:30.677Z,4.37
2017-08-15T18:12:59.050Z,4.20
2017-08-15T18:15:27.453Z,4.00
2017-08-15T18:17:55.893Z,3.87
2017-08-15T18:20:25.054Z,3.70
2017-08-15T18:22:53.434Z,4.10
2017-08-15T18:25:21.974Z,4.40
2017-08-15T18:27:50.358Z,4.30
2017-08-15T18:30:18.753Z,4.70
2017-08-15T18:32:47.194Z,4.40
2017-08-15T18:35:15.577Z,5.00
2017-08-15T18:37:43.956Z,5.17
2017-08-15T18:40:12.514Z,4.83
2017-08-15T18:42:41.631Z,4.40
2017-08-15T18:45:10.048Z,4.50
2017-08-15T18:47:38.469Z,5.53
2017-08-15T18:50:06.874Z,4.07
2017-08-15T18:52:35.259Z,4.43
2017-08-15T18:55:03.835Z,4.40
2017-08-15T18:57:32.281Z,4.43
2017-08-15T19:00:01.434Z,3.70
2017-08-15T19:02:30.080Z,4.10
2017-08-15T19:04:58.498Z,3.80
2017-08-15T19:07:26.892Z,4.40
2017-08-15T19:09:55.518Z,3.37
2017-08-15T19:12:24.005Z,4.50
2017-08-15T19:14:52.434Z,3.30
2017-08-15T19:17:20.876Z,3.50
2017-08-15T19:19:49.296Z,3.30
2017-08-15T19:22:17.680Z,3.07
2017-08-15T19:24:46.438Z,3.00
2017-08-15T19:27:14.838Z,3.53
2017-08-15T19:29:43.231Z,3.40
2017-08-15T19:32:11.679Z,3.53
2017-08-15T19:34:40.058Z,3.13
2017-08-15T19:37:08.464Z,2.70
2017-08-15T19:39:38.141Z,3.03
2017-08-15T19:42:07.625Z,2.43
2017-08-15T19:44:36.281Z,2.80
2017-08-15T19:47:05.775Z,2.90
2017-08-15T19:49:34.595Z,3.20
2017-08-15T19:52:03.910Z,2.77
2017-08-15T19:54:33.045Z,2.30
2017-08-15T19:57:01.921Z,2.40
2017-08-15T19:59:30.852Z,2.40
2017-08-15T20:02:00.604Z,2.53
2017-08-15T20:04:29.257Z,1.93
2017-08-15T20:06:58.491Z,1.20
2017-08-15T20:09:27.029Z,2.10
2017-08-15T20:11:56.182Z,2.47
2017-08-15T20:14:24.569Z,2.17
2017-08-15T20:16:53.066Z,3.30
2017-08-15T20:19:21.516Z,2.30
2017-08-15T20:21:49.984Z,2.00
2017-08-15T20:24:18.437Z,1.80
2017-08-15T20:26:46.851Z,1.73
2017-08-15T20:29:15.302Z,1.10
2017-08-15T20:31:43.814Z,1.17
2017-08-15T20:34:12.314Z,1.87
2017-08-15T20:36:40.702Z,1.83
2017-08-15T20:39:10.341Z,0.80
2017-08-15T20:41:38.851Z,1.10
2017-08-15T20:44:07.323Z,1.17
2017-08-15T20:46:35.773Z,0.77
2017-08-15T20:49:04.171Z,0.90
2017-08-15T20:51:32.625Z,0.70
2017-08-15T20:54:02.085Z,0.70
2017-08-15T20:56:30.470Z,0.90
2017-08-15T20:58:58.876Z,0.77
2017-08-15T21:01:28.103Z,0.80
2017-08-15T21:03:56.466Z,0.80
2017-08-15T21:06:25.635Z,0.87
2017-08-15T21:08:54.253Z,0.53
2017-08-15T21:11:22.694Z,0.90
2017-08-15T21:13:51.098Z,0.80
2017-08-15T21:16:20.520Z,0.73
2017-08-15T21:18:48.913Z,0.73
2017-08-15T21:21:17.340Z,0.70
2017-08-15T21:23:45.890Z,0.50
2017-08-15T21:26:14.293Z,0.77
2017-08-15T21:28:42.666Z,0.73
2017-08-15T21:31:11.274Z,0.80
2017-08-15T21:33:40.410Z,0.57
2017-08-15T21:36:08.890Z,0.67
2017-08-15T21:38:37.534Z,0.60
2017-08-15T21:41:06.679Z,0.70
2017-08-15T21:43:35.086Z,0.70
2017-08-15T21:46:03.506Z,0.70
2017-08-15T21:48:31.906Z,0.40
2017-08-15T21:51:00.292Z,0.60
2017-08-15T21:53:28.929Z,0.70
2017-08-15T21:55:58.084Z,0.53
2017-08-15T21:58:26.481Z,0.70
2017-08-15T22:01:00.703Z,0.73
2017-08-15T22:03:29.136Z,0.47
2017-08-15T22:05:57.517Z,0.40
2017-08-15T22:08:25.959Z,0.60
2017-08-15T22:10:55.101Z,0.70
2017-08-15T22:13:23.582Z,0.70
2017-08-15T22:15:52.097Z,0.80
2017-08-15T22:18:20.471Z,0.77
2017-08-15T22:20:48.856Z,0.70
2017-08-15T22:23:17.258Z,0.50
2017-08-15T22:25:45.647Z,0.60
2017-08-15T22:28:14.022Z,0.60
2017-08-15T22:30:42.454Z,0.90
2017-08-15T22:33:10.843Z,0.83
2017-08-15T22:35:39.303Z,0.53
2017-08-15T22:38:07.885Z,0.67
2017-08-15T22:40:36.311Z,0.50
2017-08-15T22:43:04.819Z,1.00
2017-08-15T22:45:33.573Z,1.33
2017-08-15T22:48:02.722Z,1.73
2017-08-15T22:50:31.098Z,1.93
2017-08-15T22:52:59.747Z,2.40
2017-08-15T22:55:28.121Z,1.70
2017-08-15T22:57:56.502Z,2.33
2017-08-15T23:00:25.073Z,3.27
2017-08-15T23:02:54.209Z,3.30
2017-08-15T23:05:22.401Z,3.80
2017-08-15T23:07:50.817Z,3.60
2017-08-15T23:10:19.963Z,4.90
2017-08-15T23:12:48.341Z,5.30
2017-08-15T23:15:16.766Z,5.53
2017-08-15T23:17:45.139Z,5.97
2017-08-15T23:20:14.285Z,5.37
2017-08-15T23:22:42.937Z,5.17
2017-08-15T23:25:11.325Z,4.87
2017-08-15T23:27:39.706Z,5.40
2017-08-15T23:30:08.265Z,5.93
2017-08-15T23:32:37.423Z,5.03
2017-08-15T23:35:05.816Z,5.50
2017-08-15T23:37:34.532Z,4.20
2017-08-15T23:40:04.255Z,5.50
2017-08-15T23:42:32.629Z,5.80
2017-08-15T23:45:01.393Z,5.40
2017-08-15T23:47:30.560Z,6.07
2017-08-15T23:49:58.965Z,6.03
2017-08-15T23:52:28.329Z,5.63
2017-08-15T23:54:56.710Z,5.67
2017-08-15T23:57:25.090Z,4.90
2017-08-15T23:59:53.577Z,4.93
